AirNav   ATP
 
 908 users online  

6A7 Brocker Lake Seaplane Base
Big Lake, Alaska, USA


FAA INFORMATION EFFECTIVE 20 JULY 2017

Location

FAA Identifier: 6A7
Lat/Long: 61-28-54.6200N / 149-46-23.6800W
61-28.910333N / 149-46.394667W
61.4818389 / -149.7732444
(estimated)
Elevation: 100 ft. / 30 m (estimated)
From city: 3 miles SE of BIG LAKE, AK
Time zone: UTC -8 (UTC -9 during Standard Time)
Zip code: 99567

Seaplane Base Operations

Seaplane Base use: Open to the public
Activation date: 05/2006
Control tower: no
ARTCC: ANCHORAGE CENTER
FSS: KENAI FLIGHT SERVICE STATION [907-283-8469]
NOTAMs facility: ENA (NOTAM-D service not available)
Attendance: UNATNDD
Wind indicator: yes, WIND INDICATOR LOCATED ON EAST SIDE OF THE LAKE.
Segmented circle: no

Seaplane Base Communications

CTAF: 122.8
WX AWOS-3P at BCV (9 nm SE): 135.55 (907-688-0826)
WX AWOS-3P at IYS (9 nm NE): 135.25 (907-373-3801)
WX AWOS-3 at FRN (13 nm S): 118.525 (907-384-0132)
WX ASOS at MRI (16 nm S): PHONE 907-272-0542
WX ASOS at LHD (19 nm S): PHONE 907-245-1618
WX ASOS at ANC (20 nm S): 118.4 (907-248-2033)

Nearby radio navigation aids

VOR radial/distance  VOR name  Freq  Var
BGQr114/7.6BIG LAKE VORTAC112.5019E
TEDr358/19.6ANCHORAGE VOR/DME113.1518E

 
NDB name  Hdg/Dist  Freq  Var  ID
CAMPBELL LAKE005/20.333818ECMQ -.-. -- --.-

Seaplane Base Services

Runway Information

Runway ALL/WAY

Dimensions: 1200 x 100 ft. / 366 x 30 m
Surface: water, in excellent condition
RUNWAY ALL  RUNWAY WAY
Traffic pattern: leftleft

Seaplane Base Ownership and Management from official FAA records

Ownership: Publicly-owned
Owner: STATE OF AK DNR
DEPT OF NATURAL RESOURCES, 550 W 7TH AVE STE 900
ANCHORAGE, AK 99501
Phone 907-269-8400
Manager: JOSEPH FISCHER
PO BOX 879700
WASILLA, AK 99687
Phone 907-376-0227

Seaplane Base Operational Statistics

Aircraft based on the field: 1
Single engine airplanes: 1
    
Aircraft operations: 50/year *
80% local general aviation
20% transient general aviation
* for 12-month period ending 31 December 2013

Additional Remarks

PUBLIC ACCESS AT NORTH END OF LAKE. NO DESIGNATED TRANSIENT AREAS.
WX CAMERA AVBL ON INTERNET AT HTTP://AVCAMS.FAA.GOV

Instrument Procedures

There are no published instrument procedures at 6A7.

Some nearby airports with instrument procedures:

PAGQ - Big Lake Airport (3 nm N)
PAWS - Wasilla Airport (9 nm NE)
PAFR - Bryant Army Airfield Heliport (13 nm S)
PAED - Elmendorf Air Force Base (14 nm S)
PAMR - Merrill Field Airport (16 nm S)
PAUO - Willow Airport (18 nm NW)
PANC - Ted Stevens Anchorage International Airport (20 nm S)
 
Loc | Ops | Rwys | IFR | FBO | Links
Com | Nav | Svcs | Stats | Notes

Crowley
 
Area around 6A7 (Brocker Lake Seaplane Base)
 
Road maps at: MapQuest Bing Google
 
Aerial photo
No photo
 
Sectional chart

 
Airport distance calculator
Flying to Brocker Lake Seaplane Base? Find the distance to fly.

From to 6A7

Sunrise and sunset
Times for 20-Jul-2017
 Local
(UTC-8)
 Zulu
(UTC)
Morning civil twilight03:3511:35
Sunrise05:0113:01
Sunset23:1007:10
Evening civil twilight00:3508:35

Current date and time
Zulu (UTC)  21-Jul-2017 01:10:18
Local (UTC-8)  20-Jul-2017 17:10:18
 
METAR
PABV 
8nm SE 
210056Z AUTO 20006KT 10SM OVC085 20/10 A2989 RMK AO2 SLP128 T02000100 $
PAFR 
13nm S 
210055Z AUTO 35003KT 10SM SCT070 20/11 A2989 RMK AO1
PAED 
14nm S 
210058Z 27004KT 10SM OVC110 21/09 A2987 RMK SLP110 P0000 T02120090
PAMR 
16nm S 
210053Z 25003KT 10SM OVC100 20/10 A2987 RMK AO2 SLP115 T02000100
PALH 
19nm S 
210053Z AUTO 18011G15KT 10SM BKN095 18/10 A2989 RMK AO2 SLP121 T01830100 TSNO
TAF
PAED 
14nm S 
201924Z 2019/2201 VRB06KT 9999 VCSH SCT011 SCT120 QNH2986INS BECMG 2100/2101 VRB06KT 9999 NSW SCT090 QNH2988INS TX19/2100Z TN11/2112Z
NOTAMs
Click for the latest NOTAMs
NOTAMs are issued by the DoD/FAA and will open in a separate window not controlled by AirNav.

 

 
 

Would you like to see your business listed on this page?

 If your business provides an interesting product or service to pilots, flight crews, aircraft, or users of the Brocker Lake Seaplane Base, you should consider listing it here.  To start the listing process, click on the button below
 
Add a business
 

Other Pages about Brocker Lake Seaplane Base

Update a link
 
Copyright © AirNav, LLC. All rights reserved. Privacy Policy  Contact